createdAt,value
2023-02-27T00:00:15.075Z,67.67
2023-02-27T00:02:52.872Z,67.88
2023-02-27T00:05:04.934Z,67.94
2023-02-27T00:07:16.723Z,67.83
2023-02-27T00:09:28.512Z,68.34
2023-02-27T00:11:40.515Z,68.66
2023-02-27T00:13:52.280Z,68.55
2023-02-27T00:16:05.211Z,68.50
2023-02-27T00:18:16.920Z,68.07
2023-02-27T00:20:29.101Z,68.63
2023-02-27T00:22:41.302Z,68.82
2023-02-27T00:24:53.093Z,69.34
2023-02-27T00:27:04.577Z,69.02
2023-02-27T00:29:16.568Z,69.15
2023-02-27T00:31:28.721Z,69.56
2023-02-27T00:33:40.556Z,69.35
2023-02-27T00:35:58.288Z,69.75
2023-02-27T00:38:10.996Z,69.89
2023-02-27T00:40:25.449Z,69.81
2023-02-27T00:42:37.654Z,69.86
2023-02-27T00:44:49.558Z,69.66
2023-02-27T00:47:01.838Z,70.11
2023-02-27T00:49:13.733Z,70.16
2023-02-27T00:51:27.420Z,70.41
2023-02-27T00:53:41.312Z,70.24
2023-02-27T00:55:52.899Z,70.36
2023-02-27T00:58:04.681Z,70.21
2023-02-27T01:00:17.087Z,70.60
2023-02-27T01:02:29.034Z,70.63
2023-02-27T01:04:41.182Z,70.68
2023-02-27T01:06:53.074Z,70.63
2023-02-27T01:09:04.555Z,70.39
2023-02-27T01:11:16.346Z,70.91
2023-02-27T01:13:28.137Z,70.65
2023-02-27T01:15:40.659Z,70.86
2023-02-27T01:17:53.974Z,70.86
2023-02-27T01:20:06.926Z,71.14
2023-02-27T01:22:18.574Z,71.08
2023-02-27T01:24:30.569Z,71.32
2023-02-27T01:26:42.390Z,71.39
2023-02-27T01:28:54.970Z,71.64
2023-02-27T01:31:06.869Z,71.55
2023-02-27T01:33:19.060Z,71.98
2023-02-27T01:35:31.056Z,71.65
2023-02-27T01:37:42.849Z,72.09
2023-02-27T01:39:56.784Z,72.04
2023-02-27T01:42:20.147Z,72.08
2023-02-27T01:44:53.031Z,72.21
2023-02-27T01:47:05.228Z,72.22
2023-02-27T01:49:29.618Z,72.32
2023-02-27T01:51:53.940Z,72.71
2023-02-27T01:54:07.530Z,72.46
2023-02-27T01:56:24.245Z,72.49
2023-02-27T01:58:37.048Z,72.73
2023-02-27T02:00:49.201Z,73.15
2023-02-27T02:03:07.030Z,72.87
2023-02-27T02:05:20.816Z,72.89
2023-02-27T02:07:34.038Z,73.00
2023-02-27T02:09:48.820Z,73.18
2023-02-27T02:12:00.908Z,73.33
2023-02-27T02:14:12.994Z,73.34
2023-02-27T02:16:33.944Z,73.67
2023-02-27T02:18:53.875Z,73.64
2023-02-27T02:21:06.724Z,73.85
2023-02-27T02:23:30.742Z,73.96
2023-02-27T02:26:04.889Z,73.99
2023-02-27T02:28:37.016Z,73.92
2023-02-27T02:31:01.984Z,74.18
2023-02-27T02:33:35.753Z,73.96
2023-02-27T02:36:14.685Z,74.29
2023-02-27T02:38:33.752Z,74.45
2023-02-27T02:40:55.771Z,74.44
2023-02-27T02:43:26.408Z,74.55
2023-02-27T02:45:50.037Z,74.68
2023-02-27T02:48:13.944Z,74.60
2023-02-27T02:50:25.938Z,74.60
2023-02-27T02:52:49.096Z,74.57
2023-02-27T02:55:00.992Z,74.60
2023-02-27T02:57:23.836Z,74.88
2023-02-27T02:59:39.016Z,74.74
2023-02-27T03:01:57.692Z,74.76
2023-02-27T03:04:13.678Z,75.20
2023-02-27T03:06:29.748Z,75.13
2023-02-27T03:09:02.108Z,75.59
2023-02-27T03:11:15.639Z,75.63
2023-02-27T03:13:31.527Z,75.44
2023-02-27T03:15:54.695Z,76.17
2023-02-27T03:18:09.135Z,76.22
2023-02-27T03:20:41.203Z,76.00
2023-02-27T03:22:55.961Z,76.15
2023-02-27T03:25:09.895Z,76.19
2023-02-27T03:27:24.143Z,76.36
2023-02-27T03:29:47.810Z,76.68
2023-02-27T03:32:07.574Z,76.72
2023-02-27T03:34:22.962Z,76.44
2023-02-27T03:36:43.350Z,76.35
2023-02-27T03:39:00.417Z,76.87
2023-02-27T03:41:30.892Z,76.59
2023-02-27T03:44:07.056Z,76.61
2023-02-27T03:46:21.326Z,76.75
2023-02-27T03:48:33.810Z,76.83
2023-02-27T03:50:45.800Z,76.84
2023-02-27T03:52:57.694Z,76.84
2023-02-27T03:55:13.477Z,76.90
2023-02-27T03:57:25.880Z,77.01
2023-02-27T03:59:38.083Z,76.96
2023-02-27T04:01:50.401Z,76.69
2023-02-27T04:04:09.653Z,77.06
2023-02-27T04:07:01.843Z,77.01
2023-02-27T04:09:22.586Z,77.04
2023-02-27T04:11:35.561Z,77.05
2023-02-27T04:14:16.885Z,76.95
2023-02-27T04:16:34.717Z,77.23
2023-02-27T04:18:56.743Z,76.95
2023-02-27T04:21:21.233Z,77.42
2023-02-27T04:23:40.145Z,77.33
2023-02-27T04:26:04.577Z,77.18
2023-02-27T04:28:25.587Z,77.20
2023-02-27T04:30:47.383Z,77.29
2023-02-27T04:33:11.354Z,77.07
2023-02-27T04:35:23.282Z,77.43
2023-02-27T04:37:37.669Z,77.39
2023-02-27T04:40:10.752Z,77.40
2023-02-27T04:42:55.026Z,77.34
2023-02-27T04:45:09.249Z,77.18
2023-02-27T04:47:22.753Z,77.16
2023-02-27T04:49:41.917Z,77.30
2023-02-27T04:51:53.401Z,77.44
2023-02-27T04:54:11.228Z,77.34
2023-02-27T04:56:25.945Z,77.71
2023-02-27T04:58:42.284Z,77.65
2023-02-27T05:00:57.760Z,77.51
2023-02-27T05:03:12.420Z,77.22
2023-02-27T05:05:28.610Z,77.52
2023-02-27T05:07:43.164Z,77.98
2023-02-27T05:09:59.257Z,77.77
2023-02-27T05:12:15.141Z,77.95
2023-02-27T05:14:42.701Z,77.97
2023-02-27T05:17:00.534Z,77.83
2023-02-27T05:19:12.629Z,77.80
2023-02-27T05:21:47.461Z,78.06
2023-02-27T05:24:08.161Z,77.77
2023-02-27T05:26:27.322Z,77.94
2023-02-27T05:28:50.886Z,78.05
2023-02-27T05:31:09.969Z,78.16
2023-02-27T05:33:42.032Z,77.87
2023-02-27T05:36:01.053Z,77.93
2023-02-27T05:38:34.466Z,78.07
2023-02-27T05:40:52.401Z,77.95
2023-02-27T05:43:06.647Z,77.76
2023-02-27T05:45:20.386Z,77.96
2023-02-27T05:47:34.228Z,78.37
2023-02-27T05:49:50.107Z,77.95
2023-02-27T05:52:03.743Z,78.21
2023-02-27T05:54:38.981Z,77.91
2023-02-27T05:56:52.818Z,78.45
2023-02-27T05:59:28.164Z,77.85
2023-02-27T06:01:40.361Z,78.19
2023-02-27T06:03:51.842Z,78.38
2023-02-27T06:06:05.578Z,78.44
2023-02-27T06:08:17.476Z,78.43
2023-02-27T06:10:30.184Z,78.33
2023-02-27T06:12:42.605Z,78.42
2023-02-27T06:14:54.893Z,78.47
2023-02-27T06:17:06.507Z,78.41
2023-02-27T06:19:18.265Z,78.39
2023-02-27T06:21:30.162Z,78.36
2023-02-27T06:23:42.379Z,78.55
2023-02-27T06:25:54.351Z,78.90
2023-02-27T06:28:06.246Z,78.82
2023-02-27T06:30:18.040Z,78.73
2023-02-27T06:32:29.622Z,78.92
2023-02-27T06:34:41.201Z,79.14
2023-02-27T06:36:52.991Z,78.98
2023-02-27T06:39:05.198Z,78.64
2023-02-27T06:41:17.228Z,78.84
2023-02-27T06:43:29.080Z,78.86
2023-02-27T06:45:41.377Z,78.97
2023-02-27T06:47:53.473Z,78.66
2023-02-27T06:50:06.082Z,78.74
2023-02-27T06:52:17.882Z,78.79
2023-02-27T06:54:29.660Z,78.67
2023-02-27T06:56:41.557Z,78.92
2023-02-27T06:58:53.565Z,78.34
2023-02-27T07:01:05.468Z,79.06
2023-02-27T07:03:17.645Z,78.69
2023-02-27T07:05:29.634Z,78.26
2023-02-27T07:07:41.749Z,79.03
2023-02-27T07:09:54.652Z,79.05
2023-02-27T07:12:08.183Z,78.75
2023-02-27T07:14:20.179Z,78.96
2023-02-27T07:16:32.279Z,78.54
2023-02-27T07:18:44.384Z,79.12
2023-02-27T07:20:56.316Z,78.57
2023-02-27T07:23:08.025Z,78.61
2023-02-27T07:25:19.943Z,78.40
2023-02-27T07:27:32.861Z,78.57
2023-02-27T07:29:44.647Z,77.78
2023-02-27T07:31:56.683Z,78.55
2023-02-27T07:34:11.920Z,77.55
2023-02-27T07:36:23.908Z,78.17
2023-02-27T07:38:35.703Z,78.19
2023-02-27T07:40:47.902Z,77.79
2023-02-27T07:42:59.694Z,77.70
2023-02-27T07:45:11.789Z,77.96
2023-02-27T07:47:23.784Z,77.80
2023-02-27T07:49:35.677Z,77.65
2023-02-27T07:51:47.373Z,77.13
2023-02-27T07:53:59.379Z,76.73
2023-02-27T07:56:11.052Z,76.96
2023-02-27T07:58:22.944Z,77.28
2023-02-27T08:00:34.882Z,76.80
2023-02-27T08:02:46.679Z,76.43
2023-02-27T08:04:59.436Z,76.52
2023-02-27T08:07:11.440Z,76.10
2023-02-27T08:09:23.935Z,76.00
2023-02-27T08:11:35.577Z,76.31
2023-02-27T08:14:03.329Z,75.78
2023-02-27T08:16:15.332Z,75.77
2023-02-27T08:18:27.175Z,75.65
2023-02-27T08:20:39.067Z,76.00
2023-02-27T08:22:51.055Z,75.13
2023-02-27T08:25:03.363Z,74.77
2023-02-27T08:27:15.253Z,75.15
2023-02-27T08:29:28.070Z,74.65
2023-02-27T08:31:39.886Z,74.53
2023-02-27T08:34:01.008Z,74.70
2023-02-27T08:36:21.631Z,74.06
2023-02-27T08:38:36.220Z,74.04
2023-02-27T08:40:51.744Z,73.87
2023-02-27T08:43:05.082Z,73.78
2023-02-27T08:45:18.344Z,73.59
2023-02-27T08:47:33.030Z,73.26
2023-02-27T08:49:46.945Z,72.83
2023-02-27T08:51:58.736Z,72.36
2023-02-27T08:54:10.457Z,72.36
2023-02-27T08:56:22.940Z,72.62
2023-02-27T08:58:36.045Z,72.64
2023-02-27T09:00:47.985Z,73.17
2023-02-27T09:03:01.539Z,72.96
2023-02-27T09:05:17.679Z,72.40
2023-02-27T09:07:29.661Z,71.74
2023-02-27T09:09:41.377Z,71.16
2023-02-27T09:11:53.852Z,71.34
2023-02-27T09:14:06.255Z,71.33
2023-02-27T09:16:18.698Z,70.37
2023-02-27T09:18:30.761Z,70.97
2023-02-27T09:20:42.369Z,70.67
2023-02-27T09:22:54.304Z,70.80
2023-02-27T09:25:06.743Z,70.26
2023-02-27T09:27:18.227Z,70.00
2023-02-27T09:29:30.074Z,69.41
2023-02-27T09:31:42.306Z,69.42
2023-02-27T09:33:55.439Z,69.21
2023-02-27T09:36:08.030Z,69.02
2023-02-27T09:38:19.736Z,69.47
2023-02-27T09:40:32.753Z,69.65
2023-02-27T09:42:45.700Z,69.54
2023-02-27T09:44:58.952Z,69.23
2023-02-27T09:47:30.756Z,69.21
2023-02-27T09:49:57.498Z,68.95
2023-02-27T09:52:13.660Z,68.59
2023-02-27T09:54:30.086Z,68.80
2023-02-27T09:56:46.526Z,68.72
2023-02-27T09:59:06.796Z,68.80
2023-02-27T10:01:22.006Z,69.14
2023-02-27T10:03:47.366Z,68.25
2023-02-27T10:06:08.471Z,68.21
2023-02-27T10:08:28.850Z,67.70
2023-02-27T10:10:48.020Z,66.85
2023-02-27T10:13:09.022Z,67.67
2023-02-27T10:15:26.650Z,67.96
2023-02-27T10:17:50.323Z,66.71
2023-02-27T10:20:07.126Z,66.20
2023-02-27T10:22:22.193Z,66.37
2023-02-27T10:24:33.885Z,66.24
2023-02-27T10:26:46.092Z,65.76
2023-02-27T10:29:01.971Z,65.93
2023-02-27T10:31:33.902Z,65.35
2023-02-27T10:33:48.211Z,65.78
2023-02-27T10:36:01.992Z,65.58
2023-02-27T10:38:17.908Z,64.56
2023-02-27T10:40:30.526Z,64.77
2023-02-27T10:42:43.282Z,63.83
2023-02-27T10:44:56.241Z,63.17
2023-02-27T10:47:13.047Z,62.64
2023-02-27T10:49:24.732Z,63.52
2023-02-27T10:51:38.744Z,63.69
2023-02-27T10:53:52.894Z,63.13
2023-02-27T10:56:06.451Z,62.64
2023-02-27T10:58:19.777Z,63.25
2023-02-27T11:00:33.622Z,63.15
2023-02-27T11:02:49.042Z,63.74
2023-02-27T11:05:01.393Z,63.80
2023-02-27T11:07:18.609Z,61.78
2023-02-27T11:09:33.234Z,60.99
2023-02-27T11:11:44.855Z,59.75
2023-02-27T11:14:15.232Z,59.24
2023-02-27T11:16:26.968Z,59.73
2023-02-27T11:18:40.496Z,61.46
2023-02-27T11:20:52.488Z,61.52
2023-02-27T11:23:03.978Z,63.10
2023-02-27T11:25:21.199Z,62.23
2023-02-27T11:27:33.595Z,61.58
2023-02-27T11:29:56.344Z,59.51
2023-02-27T11:32:13.865Z,59.02
2023-02-27T11:34:28.219Z,58.05
2023-02-27T11:36:44.831Z,58.61
2023-02-27T11:38:56.829Z,57.30
2023-02-27T11:41:09.222Z,57.60
2023-02-27T11:43:22.147Z,58.65
2023-02-27T11:46:10.730Z,57.76
2023-02-27T11:48:12.658Z,57.60
2023-02-27T11:50:37.476Z,56.63
2023-02-27T11:52:51.081Z,55.87
2023-02-27T11:55:04.928Z,53.71
2023-02-27T11:57:24.796Z,53.15
2023-02-27T11:59:44.107Z,53.08
2023-02-27T12:02:01.689Z,52.82
2023-02-27T12:04:32.319Z,51.50
2023-02-27T12:06:46.975Z,50.30
2023-02-27T12:09:05.019Z,51.58
2023-02-27T12:11:16.805Z,52.07
2023-02-27T12:13:30.331Z,52.50
2023-02-27T12:15:42.427Z,52.79
2023-02-27T12:18:08.129Z,52.82
2023-02-27T12:20:28.741Z,53.87
2023-02-27T12:22:45.968Z,52.69
2023-02-27T12:25:01.227Z,51.71
2023-02-27T12:27:24.965Z,52.27
2023-02-27T12:29:41.474Z,51.57
2023-02-27T12:31:58.727Z,51.28
2023-02-27T12:34:46.757Z,52.83
2023-02-27T12:37:01.412Z,51.22
2023-02-27T12:39:18.438Z,51.63
2023-02-27T12:41:41.884Z,52.40
2023-02-27T12:44:05.864Z,52.87
2023-02-27T12:46:28.298Z,52.09
2023-02-27T12:49:03.115Z,52.79
2023-02-27T12:51:34.483Z,52.25
2023-02-27T12:54:16.065Z,53.18
2023-02-27T12:56:43.216Z,53.79
2023-02-27T12:59:06.986Z,54.03
2023-02-27T13:01:40.893Z,53.86
2023-02-27T13:04:02.459Z,53.14
2023-02-27T13:06:23.013Z,53.46
2023-02-27T13:08:40.645Z,54.08
2023-02-27T13:11:11.911Z,53.66
2023-02-27T13:13:42.935Z,53.85
2023-02-27T13:15:59.488Z,53.94
2023-02-27T13:18:31.290Z,54.44
2023-02-27T13:20:54.130Z,54.08
2023-02-27T13:23:24.892Z,54.20
2023-02-27T13:25:38.921Z,54.82
2023-02-27T13:28:00.503Z,53.48
2023-02-27T13:30:27.996Z,53.76
2023-02-27T13:32:50.669Z,54.07
2023-02-27T13:35:07.448Z,54.49
2023-02-27T13:37:19.094Z,54.17
2023-02-27T13:39:47.215Z,54.22
2023-02-27T13:41:59.200Z,53.51
2023-02-27T13:44:17.340Z,54.23
2023-02-27T13:46:29.964Z,53.99
2023-02-27T13:48:46.447Z,55.05
2023-02-27T13:50:58.544Z,54.88
2023-02-27T13:53:16.600Z,54.39
2023-02-27T13:55:37.144Z,54.77
2023-02-27T13:57:49.202Z,55.69
2023-02-27T14:00:05.117Z,53.34
2023-02-27T14:02:33.580Z,53.99
2023-02-27T14:04:49.650Z,54.46
2023-02-27T14:07:11.150Z,53.88
2023-02-27T14:09:23.226Z,54.70
2023-02-27T14:11:39.977Z,54.01
2023-02-27T14:13:52.354Z,53.71
2023-02-27T14:16:04.830Z,54.44
2023-02-27T14:18:35.545Z,54.08
2023-02-27T14:20:49.668Z,54.02
2023-02-27T14:23:10.542Z,54.25
2023-02-27T14:25:34.933Z,53.84
2023-02-27T14:27:49.083Z,54.38
2023-02-27T14:30:03.833Z,54.34
2023-02-27T14:35:50.089Z,54.04
2023-02-27T14:38:12.302Z,53.74
2023-02-27T14:40:38.774Z,52.47
2023-02-27T14:43:06.228Z,52.77
2023-02-27T14:45:24.542Z,52.60
2023-02-27T14:47:37.435Z,52.16
2023-02-27T14:49:49.327Z,51.66
2023-02-27T14:52:16.783Z,52.40
2023-02-27T14:54:28.782Z,52.66
2023-02-27T14:56:41.104Z,52.58
2023-02-27T14:59:03.624Z,52.74
2023-02-27T15:01:17.101Z,53.15
2023-02-27T15:03:32.767Z,53.32
2023-02-27T15:05:45.754Z,53.79
2023-02-27T15:07:58.155Z,53.61
2023-02-27T15:10:17.150Z,54.23
2023-02-27T15:12:29.213Z,54.10
2023-02-27T15:14:41.759Z,54.63
2023-02-27T15:16:55.672Z,54.20
2023-02-27T15:19:18.731Z,54.58
2023-02-27T15:21:34.287Z,54.78
2023-02-27T15:24:09.018Z,55.17
2023-02-27T15:26:21.382Z,54.93
2023-02-27T15:28:38.847Z,54.95
2023-02-27T15:30:51.666Z,55.22
2023-02-27T15:33:03.759Z,55.87
2023-02-27T15:35:23.989Z,55.76
2023-02-27T15:37:36.041Z,55.94
2023-02-27T15:39:47.963Z,55.77
2023-02-27T15:42:02.617Z,55.00
2023-02-27T15:44:15.914Z,55.73
2023-02-27T15:46:28.056Z,55.81
2023-02-27T15:48:40.430Z,55.44
2023-02-27T15:50:54.664Z,55.91
2023-02-27T15:53:12.596Z,55.83
2023-02-27T15:55:26.353Z,56.15
2023-02-27T15:57:38.428Z,56.22
2023-02-27T15:59:51.366Z,56.17
2023-02-27T16:02:04.672Z,56.27
2023-02-27T16:04:26.605Z,56.70
2023-02-27T16:06:40.887Z,56.84
2023-02-27T16:08:54.784Z,56.70
2023-02-27T16:11:07.105Z,56.74
2023-02-27T16:13:25.129Z,56.98
2023-02-27T16:15:38.453Z,57.10
2023-02-27T16:17:53.308Z,56.79
2023-02-27T16:20:25.372Z,57.03
2023-02-27T16:22:57.236Z,56.76
2023-02-27T16:25:10.935Z,57.03
2023-02-27T16:27:22.864Z,57.26
2023-02-27T16:29:36.293Z,57.27
2023-02-27T16:31:49.417Z,57.33
2023-02-27T16:34:13.503Z,57.53
2023-02-27T16:36:27.090Z,57.54
2023-02-27T16:38:39.424Z,57.79
2023-02-27T16:40:52.356Z,58.17
2023-02-27T16:43:04.028Z,58.10
2023-02-27T16:45:16.923Z,58.28
2023-02-27T16:47:29.012Z,58.44
2023-02-27T16:49:41.149Z,58.72
2023-02-27T16:51:53.341Z,58.35
2023-02-27T16:54:06.765Z,58.89
2023-02-27T16:56:23.733Z,58.83
2023-02-27T16:58:44.988Z,58.74
2023-02-27T17:00:56.683Z,59.18
2023-02-27T17:03:08.676Z,59.17
2023-02-27T17:05:20.469Z,59.19
2023-02-27T17:07:39.115Z,59.49
2023-02-27T17:09:51.519Z,59.38
2023-02-27T17:12:04.045Z,59.79
2023-02-27T17:14:17.495Z,59.86
2023-02-27T17:16:30.518Z,60.23
2023-02-27T17:18:43.711Z,60.39
2023-02-27T17:21:02.353Z,60.30
2023-02-27T17:23:14.597Z,60.66
2023-02-27T17:25:28.327Z,60.61
2023-02-27T17:27:42.209Z,60.84
2023-02-27T17:29:54.617Z,60.63
2023-02-27T17:32:07.222Z,60.87
2023-02-27T17:34:19.969Z,60.81
2023-02-27T17:36:32.514Z,61.20
2023-02-27T17:38:45.372Z,61.29
2023-02-27T17:40:56.978Z,60.89
2023-02-27T17:43:09.986Z,61.08
2023-02-27T17:45:24.892Z,61.40
2023-02-27T17:47:39.031Z,61.54
2023-02-27T17:49:54.595Z,61.53
2023-02-27T17:52:07.613Z,61.46
2023-02-27T17:54:19.864Z,61.51
2023-02-27T17:56:36.567Z,61.77
2023-02-27T17:58:50.064Z,61.70
2023-02-27T18:01:06.778Z,61.68
2023-02-27T18:03:19.930Z,61.80
2023-02-27T18:05:32.777Z,61.88
2023-02-27T18:07:45.186Z,62.15
2023-02-27T18:09:57.379Z,62.13
2023-02-27T18:12:09.765Z,62.14
2023-02-27T18:14:21.657Z,62.02
2023-02-27T18:16:33.957Z,62.07
2023-02-27T18:18:45.949Z,62.06
2023-02-27T18:21:02.531Z,61.98
2023-02-27T18:23:15.720Z,61.93
2023-02-27T18:25:28.317Z,61.99
2023-02-27T18:27:40.708Z,61.99
2023-02-27T18:29:52.977Z,62.32
2023-02-27T18:32:09.323Z,62.00
2023-02-27T18:34:22.632Z,62.18
2023-02-27T18:36:36.253Z,62.28
2023-02-27T18:38:49.068Z,62.34
2023-02-27T18:41:03.541Z,62.45
2023-02-27T18:43:16.323Z,62.51
2023-02-27T18:45:33.348Z,62.05
2023-02-27T18:47:45.687Z,62.59
2023-02-27T18:49:57.223Z,62.51
2023-02-27T18:52:09.970Z,62.71
2023-02-27T18:54:21.524Z,62.98
2023-02-27T18:56:33.515Z,62.90
2023-02-27T18:58:45.318Z,63.27
2023-02-27T19:00:57.661Z,63.15
2023-02-27T19:03:09.742Z,62.96
2023-02-27T19:05:21.496Z,63.36
2023-02-27T19:07:33.287Z,63.33
2023-02-27T19:09:45.183Z,63.35
2023-02-27T19:11:57.277Z,63.39
2023-02-27T19:14:11.011Z,63.58
2023-02-27T19:16:24.245Z,63.46
2023-02-27T19:18:42.080Z,63.47
2023-02-27T19:20:55.353Z,63.48
2023-02-27T19:23:09.125Z,63.95
2023-02-27T19:25:20.814Z,63.66
2023-02-27T19:27:32.709Z,63.85
2023-02-27T19:29:44.802Z,63.93
2023-02-27T19:31:56.714Z,64.42
2023-02-27T19:34:08.691Z,64.20
2023-02-27T19:36:21.799Z,64.15
2023-02-27T19:38:33.913Z,64.18
2023-02-27T19:40:46.213Z,64.62
2023-02-27T19:42:59.333Z,64.49
2023-02-27T19:48:07.635Z,64.67
2023-02-27T19:50:21.818Z,64.36
2023-02-27T19:52:38.060Z,64.30
2023-02-27T19:54:50.650Z,64.58
2023-02-27T19:57:04.139Z,64.46
2023-02-27T19:59:16.342Z,64.67
2023-02-27T20:01:31.202Z,64.25
2023-02-27T20:03:43.800Z,64.42
2023-02-27T20:05:56.416Z,64.62
2023-02-27T20:08:08.820Z,64.92
2023-02-27T20:10:20.719Z,64.85
2023-02-27T20:12:32.829Z,64.96
2023-02-27T20:14:44.704Z,65.08
2023-02-27T20:16:56.759Z,65.60
2023-02-27T20:19:10.637Z,65.65
2023-02-27T20:21:23.499Z,65.34
2023-02-27T20:23:37.907Z,65.43
2023-02-27T20:25:51.127Z,65.48
2023-02-27T20:28:04.584Z,65.65
2023-02-27T20:30:17.181Z,65.64
2023-02-27T20:32:29.451Z,65.95
2023-02-27T20:34:41.358Z,65.68
2023-02-27T20:36:56.433Z,66.16
2023-02-27T20:39:10.160Z,66.45
2023-02-27T20:41:22.997Z,66.22
2023-02-27T20:43:35.071Z,66.30
2023-02-27T20:45:46.979Z,66.61
2023-02-27T20:47:58.656Z,66.61
2023-02-27T20:50:11.790Z,67.06
2023-02-27T20:52:23.669Z,67.17
2023-02-27T20:54:35.558Z,67.15
2023-02-27T20:56:48.476Z,66.83
2023-02-27T20:59:01.998Z,67.01
2023-02-27T21:01:15.224Z,67.14
2023-02-27T21:03:29.231Z,68.05
2023-02-27T21:05:46.183Z,68.20
2023-02-27T21:07:58.179Z,68.23
2023-02-27T21:10:10.506Z,68.38
2023-02-27T21:12:22.485Z,68.04
2023-02-27T21:14:34.778Z,68.32
2023-02-27T21:16:46.410Z,68.46
2023-02-27T21:18:58.672Z,68.52
2023-02-27T21:21:12.199Z,68.94
2023-02-27T21:23:24.291Z,68.26
2023-02-27T21:25:43.198Z,68.75
2023-02-27T21:27:56.111Z,68.76
2023-02-27T21:30:09.234Z,68.84
2023-02-27T21:32:21.330Z,69.41
2023-02-27T21:34:33.273Z,69.13
2023-02-27T21:36:45.994Z,69.44
2023-02-27T21:39:04.134Z,69.49
2023-02-27T21:41:15.708Z,69.61
2023-02-27T21:43:27.564Z,69.50
2023-02-27T21:45:44.044Z,69.04
2023-02-27T21:47:55.899Z,69.50
2023-02-27T21:50:14.105Z,69.81
2023-02-27T21:52:25.715Z,70.12
2023-02-27T21:54:37.303Z,70.19
2023-02-27T22:00:48.612Z,69.81
2023-02-27T22:03:00.553Z,70.24
2023-02-27T22:05:12.494Z,70.53
2023-02-27T22:07:24.497Z,70.27
2023-02-27T22:09:39.661Z,70.47
2023-02-27T22:11:54.419Z,70.28
2023-02-27T22:14:06.942Z,70.33
2023-02-27T22:16:19.540Z,70.21
2023-02-27T22:18:31.526Z,70.50
2023-02-27T22:20:43.186Z,70.25
2023-02-27T22:22:55.004Z,70.37
2023-02-27T22:25:07.482Z,70.42
2023-02-27T22:27:19.403Z,70.26
2023-02-27T22:29:31.915Z,70.03
2023-02-27T22:31:43.831Z,70.65
2023-02-27T22:33:59.189Z,70.29
2023-02-27T22:36:15.577Z,70.67
2023-02-27T22:38:27.597Z,70.94
2023-02-27T22:40:40.516Z,70.54
2023-02-27T22:42:52.276Z,70.89
2023-02-27T22:45:04.483Z,70.34
2023-02-27T22:47:16.471Z,70.83
2023-02-27T22:49:28.266Z,70.70
2023-02-27T22:51:40.254Z,71.30
2023-02-27T22:53:52.250Z,70.81
2023-02-27T22:56:08.157Z,71.07
2023-02-27T22:58:19.825Z,71.33
2023-02-27T23:00:33.254Z,71.26
2023-02-27T23:02:45.143Z,71.27
2023-02-27T23:04:57.391Z,71.74
2023-02-27T23:07:09.445Z,71.39
2023-02-27T23:09:21.981Z,71.77
2023-02-27T23:11:33.942Z,71.51
2023-02-27T23:13:45.733Z,71.94
2023-02-27T23:15:58.038Z,71.99
2023-02-27T23:18:09.936Z,72.14
2023-02-27T23:20:21.784Z,72.53
2023-02-27T23:22:33.815Z,72.34
2023-02-27T23:24:45.814Z,72.29
2023-02-27T23:26:58.112Z,72.70
2023-02-27T23:29:10.206Z,72.57
2023-02-27T23:31:23.233Z,72.63
2023-02-27T23:33:35.639Z,72.71
2023-02-27T23:35:47.670Z,73.02
2023-02-27T23:38:00.749Z,73.10
2023-02-27T23:40:13.154Z,73.22
2023-02-27T23:42:43.881Z,73.04
2023-02-27T23:44:55.774Z,73.01
2023-02-27T23:47:07.876Z,73.05
2023-02-27T23:49:19.972Z,73.43
2023-02-27T23:51:33.401Z,73.10
2023-02-27T23:53:45.596Z,73.02
2023-02-27T23:55:57.080Z,73.02
2023-02-27T23:58:10.410Z,73.31
